Terminal Aerodrome Forecast
Issued by NWS St Louis, MO

Home | Current Version | Previous Version | Text Only | Print | Product List | Glossary On
Versions: 1 2 3 4 5 6 7 8 9 10 11 12 13 14 15 16 17 18 19 20 21 22 23 24
498
FTUS43 KLSX 192054 AAA
TAFSTL
TAF AMD
KSTL 192054Z 1921/2024 30012KT P6SM VCSH FEW070
     FM200200 27004KT P6SM SKC
     FM201600 28008KT P6SM FEW070=

USA.gov is the U.S. government's official web portal to all federal, state and local government web resources and services.